Time;durP1;ratioP1;P1;durP2;ratioP2;P2;SDS_P1;SDS_P2;PMS_P1;PMS_P2;Temp;Humidity;BMP_temperature;BMP_pressure;BME280_temperature;BME280_humidity;BME280_pressure;Samples;Min_cycle;Max_cycle;Signal;HPM_P1;HPM_P2
2021/09/24 00:00:34;;;;;;;1999.90;999.90;;;;;;;11.77;47.90;100824.84;4970685;28;96797;-75
2021/09/24 00:03:02;;;;;;;1999.90;999.90;;;;;;;11.76;47.97;100820.34;4961587;28;97856;-76
2021/09/24 00:05:30;;;;;;;1999.90;999.90;;;;;;;11.78;47.88;100810.63;4980270;28;101859;-76
2021/09/24 00:07:58;;;;;;;1999.90;999.90;;;;;;;11.87;47.66;100820.56;4972953;28;97096;-76
2021/09/24 00:10:26;;;;;;;1999.90;999.90;;;;;;;11.90;47.24;100829.50;4981698;28;97076;-75
2021/09/24 00:12:54;;;;;;;1999.90;999.90;;;;;;;11.94;47.31;100827.78;4981287;28;97658;-76
2021/09/24 00:15:22;;;;;;;1999.90;999.90;;;;;;;11.99;47.08;100828.75;4956619;28;100504;-76
2021/09/24 00:17:51;;;;;;;1999.90;999.90;;;;;;;11.99;47.22;100826.97;4981149;28;97247;-75
2021/09/24 00:20:19;;;;;;;1999.90;999.90;;;;;;;12.01;47.25;100838.56;4980746;28;97251;-76
2021/09/24 00:22:47;;;;;;;1999.90;999.90;;;;;;;12.02;47.28;100840.34;4981272;28;97942;-76
2021/09/24 00:25:15;;;;;;;1999.90;999.90;;;;;;;12.02;47.09;100844.78;4988764;28;101780;-75
2021/09/24 00:27:43;;;;;;;1999.90;999.90;;;;;;;12.00;47.22;100852.75;4979295;28;96929;-76
2021/09/24 00:30:12;;;;;;;1999.90;999.90;;;;;;;12.03;47.29;100849.25;4988066;28;96892;-75
2021/09/24 00:32:40;;;;;;;1999.90;999.90;;;;;;;12.00;47.40;100859.84;4957835;28;99722;-75
2021/09/24 00:35:10;;;;;;;1999.90;999.90;;;;;;;11.99;47.48;100861.66;4982149;28;97992;-74
2021/09/24 00:37:38;;;;;;;1999.90;999.90;;;;;;;11.97;47.52;100854.50;4980064;28;97039;-76
2021/09/24 00:40:08;;;;;;;1999.90;999.90;;;;;;;11.93;47.73;100860.63;4978505;28;97310;-75
2021/09/24 00:42:37;;;;;;;1999.90;999.90;;;;;;;11.89;47.76;100861.47;4980205;28;100589;-75
2021/09/24 00:45:05;;;;;;;1999.90;999.90;;;;;;;11.90;47.67;100860.59;4964589;28;99608;-76
2021/09/24 00:47:33;;;;;;;1999.90;999.90;;;;;;;11.90;47.91;100850.84;4963764;28;97431;-76
2021/09/24 00:50:01;;;;;;;1999.90;999.90;;;;;;;11.87;47.82;100853.44;4979715;28;96979;-75
2021/09/24 00:52:30;;;;;;;1999.90;999.90;;;;;;;11.84;47.83;100848.06;4982038;28;98769;-75
2021/09/24 00:54:58;;;;;;;1999.90;999.90;;;;;;;11.85;47.60;100854.28;4964645;28;99119;-75
2021/09/24 00:57:26;;;;;;;1999.90;999.90;;;;;;;11.78;47.77;100847.06;4964443;28;97520;-75
2021/09/24 00:59:54;;;;;;;1999.90;999.90;;;;;;;11.77;47.65;100856.81;4978207;28;97169;-74
2021/09/24 01:02:22;;;;;;;1999.90;999.90;;;;;;;11.72;47.38;100855.84;4982083;28;97860;-75
2021/09/24 01:04:51;;;;;;;1999.90;999.90;;;;;;;11.70;47.41;100862.94;4980798;28;98447;-75
2021/09/24 01:07:19;;;;;;;1999.90;999.90;;;;;;;11.68;47.25;100872.66;4959925;28;96703;-75
2021/09/24 01:09:48;;;;;;;1999.90;999.90;;;;;;;11.70;47.04;100873.59;4979784;28;97424;-76
2021/09/24 01:12:16;;;;;;;1999.90;999.90;;;;;;;11.67;46.83;100867.31;4970702;28;99773;-75
2021/09/24 01:14:44;;;;;;;1999.90;999.90;;;;;;;11.65;46.82;100867.25;4979772;28;100627;-73
2021/09/24 01:17:12;;;;;;;1999.90;999.90;;;;;;;11.67;46.83;100860.19;4978135;28;96857;-74
2021/09/24 01:19:40;;;;;;;1999.90;999.90;;;;;;;11.70;46.59;100870.00;4974111;28;96901;-73
2021/09/24 01:22:09;;;;;;;1999.90;999.90;;;;;;;11.63;46.46;100874.34;4981871;28;97687;-74
2021/09/24 01:24:36;;;;;;;1999.90;999.90;;;;;;;11.56;46.50;100876.88;4980182;28;98969;-74
2021/09/24 01:27:05;;;;;;;1999.90;999.90;;;;;;;11.52;46.97;100870.59;4979434;28;96677;-75
2021/09/24 01:29:33;;;;;;;1999.90;999.90;;;;;;;11.56;46.65;100872.41;4979432;28;97018;-75
2021/09/24 01:32:01;;;;;;;1999.90;999.90;;;;;;;11.52;46.80;100873.25;4979242;28;98038;-73
2021/09/24 01:34:29;;;;;;;1999.90;999.90;;;;;;;11.49;46.74;100864.31;4961595;28;99759;-74
2021/09/24 01:36:57;;;;;;;1999.90;999.90;;;;;;;11.45;46.60;100868.66;4988119;28;96959;-73
2021/09/24 01:39:26;;;;;;;1999.90;999.90;;;;;;;11.44;46.76;100876.63;4980732;28;97292;-74
2021/09/24 01:41:54;;;;;;;1999.90;999.90;;;;;;;11.35;46.98;100872.03;4979078;28;100579;-74
2021/09/24 01:44:21;;;;;;;1999.90;999.90;;;;;;;11.29;46.95;100869.19;4980219;28;99227;-75
2021/09/24 01:46:49;;;;;;;1999.90;999.90;;;;;;;11.20;47.30;100863.69;4979119;28;97039;-74
2021/09/24 01:49:17;;;;;;;1999.90;999.90;;;;;;;11.11;47.46;100866.16;4979674;28;96936;-73
2021/09/24 01:51:45;;;;;;;1999.90;999.90;;;;;;;11.07;47.39;100865.22;4979146;28;98292;-73
2021/09/24 01:54:14;;;;;;;1999.90;999.90;;;;;;;11.01;47.78;100870.41;4963972;28;101258;-75
2021/09/24 01:56:43;;;;;;;1999.90;999.90;;;;;;;10.98;47.69;100865.03;4971253;28;97151;-75
2021/09/24 01:59:11;;;;;;;1999.90;999.90;;;;;;;10.95;47.75;100859.66;4971071;28;96952;-75
2021/09/24 02:01:39;;;;;;;1999.90;999.90;;;;;;;11.01;47.71;100864.19;4977768;28;99531;-75
2021/09/24 02:04:07;;;;;;;1999.90;999.90;;;;;;;10.99;47.77;100860.59;4978703;28;100942;-74
2021/09/24 02:06:35;;;;;;;1999.90;999.90;;;;;;;11.03;47.73;100867.81;4968814;28;97670;-73
2021/09/24 02:09:04;;;;;;;1999.90;999.90;;;;;;;10.98;47.86;100875.69;4983838;28;97073;-73
2021/09/24 02:11:32;;;;;;;1999.90;999.90;;;;;;;10.97;47.77;100879.22;4982845;28;97688;-73
2021/09/24 02:14:01;;;;;;;1999.90;999.90;;;;;;;10.98;47.99;100874.78;4981650;28;99060;-75
2021/09/24 02:16:29;;;;;;;1999.90;999.90;;;;;;;10.99;48.08;100876.59;4971757;28;97010;-74
2021/09/24 02:18:57;;;;;;;1999.90;999.90;;;;;;;10.96;48.14;100892.47;4995709;28;97676;-74
2021/09/24 02:21:24;;;;;;;1999.90;999.90;;;;;;;10.94;48.34;100883.59;4981337;28;97501;-76
2021/09/24 02:23:52;;;;;;;1999.90;999.90;;;;;;;10.91;48.27;100886.16;4980334;28;99251;-74
2021/09/24 02:26:20;;;;;;;1999.90;999.90;;;;;;;10.88;48.57;100888.78;4988626;28;96852;-74
2021/09/24 02:29:09;;;;;;;1999.90;999.90;;;;;;;10.82;48.82;100893.94;4996915;28;97016;-75
2021/09/24 02:31:37;;;;;;;1999.90;999.90;;;;;;;10.78;48.95;100898.31;4962993;28;98014;-74
2021/09/24 02:34:05;;;;;;;1999.90;999.90;;;;;;;10.76;49.13;100893.81;4978252;28;100598;-75
2021/09/24 02:36:33;;;;;;;1999.90;999.90;;;;;;;10.77;49.03;100887.63;4978523;28;97116;-75
2021/09/24 02:39:01;;;;;;;1999.90;999.90;;;;;;;10.78;48.96;100887.66;4962324;28;96860;-75
2021/09/24 02:41:29;;;;;;;1999.90;999.90;;;;;;;10.78;49.07;100887.66;4978771;28;97783;-75
2021/09/24 02:43:57;;;;;;;1999.90;999.90;;;;;;;10.76;49.13;100888.47;4976989;28;97579;-74
2021/09/24 02:46:26;;;;;;;1999.90;999.90;;;;;;;10.77;48.96;100890.31;4969311;28;96796;-74
2021/09/24 02:48:54;;;;;;;1999.90;999.90;;;;;;;10.77;49.03;100907.19;4978773;28;97402;-74
2021/09/24 02:51:22;;;;;;;1999.90;999.90;;;;;;;10.77;49.11;100901.84;4977770;28;99657;-74
2021/09/24 02:53:50;;;;;;;1999.90;999.90;;;;;;;10.79;49.01;100905.44;4977902;28;97726;-73
2021/09/24 02:56:18;;;;;;;1999.90;999.90;;;;;;;10.73;49.28;100910.63;4978953;28;97379;-75
2021/09/24 02:58:46;;;;;;;1999.90;999.90;;;;;;;10.70;49.21;100915.84;4977108;28;97167;-74
2021/09/24 03:01:14;;;;;;;1999.90;999.90;;;;;;;10.69;49.23;100902.53;4970252;28;99222;-74
2021/09/24 03:03:44;;;;;;;1999.90;999.90;;;;;;;10.64;49.36;100905.09;4960025;28;101845;-75
2021/09/24 03:06:12;;;;;;;1999.90;999.90;;;;;;;10.58;49.31;100902.28;4960885;28;96954;-75
2021/09/24 03:08:40;;;;;;;1999.90;999.90;;;;;;;10.58;49.47;100912.03;4967930;28;97669;-75
2021/09/24 03:11:08;;;;;;;1999.90;999.90;;;;;;;10.58;49.53;100914.69;4977082;28;99312;-75
2021/09/24 03:13:35;;;;;;;1999.90;999.90;;;;;;;10.56;49.43;100911.09;4979011;28;97606;-75
2021/09/24 03:16:04;;;;;;;1999.90;999.90;;;;;;;10.52;49.54;100914.56;4961368;28;97429;-74
2021/09/24 03:18:32;;;;;;;1999.90;999.90;;;;;;;10.55;49.44;100917.28;4960320;28;97992;-74
2021/09/24 03:21:01;;;;;;;1999.90;999.90;;;;;;;10.52;49.36;100917.22;4976993;28;99283;-74
2021/09/24 03:23:29;;;;;;;1999.90;999.90;;;;;;;10.50;49.48;100922.53;4993011;28;99302;-75
2021/09/24 03:25:57;;;;;;;1999.90;999.90;;;;;;;10.49;49.49;100919.78;4980259;28;97459;-75
2021/09/24 03:28:25;;;;;;;1999.90;999.90;;;;;;;10.49;49.57;100920.69;4960661;28;97443;-76
2021/09/24 03:30:53;;;;;;;1999.90;999.90;;;;;;;10.46;49.55;100933.94;4978614;28;99129;-75
2021/09/24 03:33:21;;;;;;;1999.90;999.90;;;;;;;10.47;49.86;100937.47;4985288;28;97731;-75
2021/09/24 03:35:48;;;;;;;1999.90;999.90;;;;;;;10.45;49.63;100936.56;4976966;28;97267;-75
2021/09/24 03:38:18;;;;;;;1999.90;999.90;;;;;;;10.42;49.65;100933.81;4979265;28;97133;-74
2021/09/24 03:40:46;;;;;;;1999.90;999.90;;;;;;;10.42;49.50;100933.81;4985633;28;97549;-75
2021/09/24 03:43:13;;;;;;;1999.90;999.90;;;;;;;10.39;49.54;100931.06;4985111;28;99149;-75
2021/09/24 03:45:41;;;;;;;1999.90;999.90;;;;;;;10.40;49.72;100930.19;4967748;28;97934;-75
2021/09/24 03:48:09;;;;;;;1999.90;999.90;;;;;;;10.36;49.76;100929.22;4987052;28;97092;-76
2021/09/24 03:50:53;;;;;;;1999.90;999.90;;;;;;;10.33;49.73;100928.25;5081193;27;97393;-70
2021/09/24 03:53:21;;;;;;;1999.90;999.90;;;;;;;10.32;49.87;100923.78;5073771;27;97890;-69
2021/09/24 03:55:52;;;;;;;1999.90;999.90;;;;;;;10.27;49.96;100933.41;5077644;27;100681;-69
2021/09/24 03:58:20;;;;;;;1999.90;999.90;;;;;;;10.23;49.94;100936.88;5070658;27;99191;-71
2021/09/24 04:00:49;;;;;;;1999.90;999.90;;;;;;;10.21;50.14;100928.81;5064657;27;97771;-71
2021/09/24 04:03:17;;;;;;;1999.90;999.90;;;;;;;10.22;50.18;100941.28;5057221;27;97306;-70
2021/09/24 04:05:45;;;;;;;1999.90;999.90;;;;;;;10.20;50.31;100941.25;5073205;27;98791;-70
2021/09/24 04:08:14;;;;;;;1999.90;999.90;;;;;;;10.15;50.38;100940.25;5074984;27;98111;-69
2021/09/24 04:10:42;;;;;;;1999.90;999.90;;;;;;;10.12;50.74;100942.81;5073259;27;97673;-69
2021/09/24 04:13:10;;;;;;;1999.90;999.90;;;;;;;10.11;50.77;100941.03;5060043;27;97881;-71
2021/09/24 04:15:38;;;;;;;1999.90;999.90;;;;;;;10.09;50.82;100936.50;5077726;27;98837;-70
2021/09/24 04:18:06;;;;;;;1999.90;999.90;;;;;;;10.06;51.03;100952.41;5072355;27;100439;-70
2021/09/24 04:20:33;;;;;;;1999.90;999.90;;;;;;;10.05;51.04;100948.81;5073859;27;96947;-70
2021/09/24 04:23:01;;;;;;;1999.90;999.90;;;;;;;10.03;51.11;100941.66;5062079;27;97014;-70
2021/09/24 04:25:30;;;;;;;1999.90;999.90;;;;;;;10.02;51.22;100947.84;5077242;27;99014;-70
2021/09/24 04:27:58;;;;;;;1999.90;999.90;;;;;;;10.02;51.40;100938.13;5069752;27;97852;-70
2021/09/24 04:30:26;;;;;;;1999.90;999.90;;;;;;;9.98;51.60;100946.88;5073264;27;97403;-70
2021/09/24 04:32:54;;;;;;;1999.90;999.90;;;;;;;9.97;51.70;100947.72;5076570;27;96958;-70
2021/09/24 04:35:24;;;;;;;1999.90;999.90;;;;;;;9.99;51.75;100953.97;5066663;27;97667;-71
2021/09/24 04:37:51;;;;;;;1999.90;999.90;;;;;;;10.01;51.68;100954.91;5063634;27;98696;-69
2021/09/24 04:40:20;;;;;;;1999.90;999.90;;;;;;;10.05;51.67;100950.56;5065640;27;97240;-69
2021/09/24 04:42:49;;;;;;;1999.90;999.90;;;;;;;10.04;51.68;100960.34;5063135;27;97928;-69
2021/09/24 04:45:17;;;;;;;1999.90;999.90;;;;;;;10.04;51.63;100955.03;5070019;27;99314;-70
2021/09/24 04:47:44;;;;;;;1999.90;999.90;;;;;;;10.05;51.80;100959.47;5065545;27;97045;-70
2021/09/24 04:50:12;;;;;;;1999.90;999.90;;;;;;;10.05;51.68;100969.19;5066182;27;97038;-70
2021/09/24 04:52:40;;;;;;;1999.90;999.90;;;;;;;10.03;51.64;100968.25;5064367;27;98166;-70
2021/09/24 04:55:09;;;;;;;1999.90;999.90;;;;;;;10.02;51.64;100963.81;5078106;27;99495;-69
2021/09/24 04:57:38;;;;;;;1999.90;999.90;;;;;;;10.02;51.68;100963.81;5069443;27;99507;-69
2021/09/24 05:00:11;;;;;;;1999.90;999.90;;;;;;;10.03;51.67;100962.94;5066778;27;98459;-68
2021/09/24 05:02:38;;;;;;;1999.90;999.90;;;;;;;10.02;51.63;100969.13;5028370;27;97332;-69
2021/09/24 05:05:07;;;;;;;1999.90;999.90;;;;;;;10.01;51.79;100968.22;5056214;27;97869;-70
2021/09/24 05:07:35;;;;;;;1999.90;999.90;;;;;;;10.02;51.76;100969.13;5057976;27;99578;-70
2021/09/24 05:10:04;;;;;;;1999.90;999.90;;;;;;;10.02;51.89;100966.47;5045902;27;98077;-69
2021/09/24 05:12:32;;;;;;;1999.90;999.90;;;;;;;10.02;51.89;100964.72;5063926;27;97178;-70
2021/09/24 05:15:00;;;;;;;1999.90;999.90;;;;;;;10.03;51.94;100965.59;5051733;27;100596;-71
2021/09/24 05:17:29;;;;;;;1999.90;999.90;;;;;;;10.00;52.08;100970.84;5038191;27;97828;-69
2021/09/24 05:19:57;;;;;;;1999.90;999.90;;;;;;;9.97;52.16;100971.63;5040541;27;97273;-69
2021/09/24 05:22:25;;;;;;;1999.90;999.90;;;;;;;9.97;52.13;100973.44;5051851;27;98032;-70
2021/09/24 05:24:53;;;;;;;1999.90;999.90;;;;;;;9.93;52.20;100971.53;5031387;27;98933;-69
2021/09/24 05:27:21;;;;;;;1999.90;999.90;;;;;;;9.92;52.41;100973.28;5051017;27;98777;-69
2021/09/24 05:29:48;;;;;;;1999.90;999.90;;;;;;;9.91;52.62;100971.50;5059222;27;97304;-70
2021/09/24 05:32:17;;;;;;;1999.90;999.90;;;;;;;9.91;52.54;100982.13;5046919;27;97670;-70
2021/09/24 05:34:46;;;;;;;1999.90;999.90;;;;;;;9.91;52.57;100976.81;5055277;27;99242;-69
2021/09/24 05:37:14;;;;;;;1999.90;999.90;;;;;;;9.92;52.63;100983.91;5057289;27;98330;-69
2021/09/24 05:39:43;;;;;;;1999.90;999.90;;;;;;;9.91;52.72;100975.91;5041971;27;98423;-70
2021/09/24 05:42:10;;;;;;;1999.90;999.90;;;;;;;9.94;52.73;100968.91;5037428;27;98161;-68
2021/09/24 05:44:38;;;;;;;1999.90;999.90;;;;;;;9.95;52.66;100973.38;5057192;27;97764;-69
2021/09/24 05:47:06;;;;;;;1999.90;999.90;;;;;;;9.95;52.63;100973.38;5053829;27;98952;-69
2021/09/24 05:49:34;;;;;;;1999.90;999.90;;;;;;;9.94;52.54;100976.88;5056804;27;96936;-70
2021/09/24 05:52:03;;;;;;;1999.90;999.90;;;;;;;9.95;52.61;100977.78;5062732;27;96921;-69
2021/09/24 05:54:31;;;;;;;1999.90;999.90;;;;;;;9.96;52.44;100977.84;5059630;27;97605;-70
2021/09/24 05:56:59;;;;;;;1999.90;999.90;;;;;;;9.98;52.66;100972.56;5057970;27;99520;-69
2021/09/24 05:59:27;;;;;;;1999.90;999.90;;;;;;;10.00;52.70;100971.75;5060805;27;98093;-68
2021/09/24 06:01:54;;;;;;;1999.90;999.90;;;;;;;10.04;52.87;100980.69;5060422;27;97370;-70
2021/09/24 06:04:23;;;;;;;1999.90;999.90;;;;;;;10.08;52.55;100977.28;5062466;27;98900;-69
2021/09/24 06:06:50;;;;;;;1999.90;999.90;;;;;;;10.12;52.60;100972.06;5063305;27;96904;-70
2021/09/24 06:09:19;;;;;;;1999.90;999.90;;;;;;;10.13;52.67;100971.22;5064463;27;97172;-69
2021/09/24 06:11:47;;;;;;;1999.90;999.90;;;;;;;10.15;52.48;100966.84;5045576;27;98728;-71
2021/09/24 06:14:16;;;;;;;1999.90;999.90;;;;;;;10.15;52.49;100981.88;5052201;27;99932;-69
2021/09/24 06:16:43;;;;;;;1999.90;999.90;;;;;;;10.16;52.47;100975.69;5033426;27;98449;-69
2021/09/24 06:19:11;;;;;;;1999.90;999.90;;;;;;;10.17;52.42;100973.06;5052093;27;97004;-68
2021/09/24 06:21:40;;;;;;;1999.90;999.90;;;;;;;10.22;52.58;100973.19;5054369;27;97013;-69
2021/09/24 06:24:11;;;;;;;1999.90;999.90;;;;;;;10.26;52.54;100972.41;5049802;27;99161;-69
2021/09/24 06:26:40;;;;;;;1999.90;999.90;;;;;;;10.30;52.59;100976.06;5047857;27;99005;-69
2021/09/24 06:29:08;;;;;;;1999.90;999.90;;;;;;;10.33;52.60;100976.13;5047971;27;97738;-68
2021/09/24 06:31:36;;;;;;;1999.90;999.90;;;;;;;10.37;52.64;100975.34;5054231;27;96721;-68
2021/09/24 06:34:04;;;;;;;1999.90;999.90;;;;;;;10.41;52.45;100970.16;5051064;27;99709;-68
2021/09/24 06:36:31;;;;;;;1999.90;999.90;;;;;;;10.43;52.70;100967.56;5051562;27;97965;-68
2021/09/24 06:39:00;;;;;;;1999.90;999.90;;;;;;;10.47;52.74;100980.94;5051085;27;97492;-69
2021/09/24 06:41:28;;;;;;;1999.90;999.90;;;;;;;10.50;52.56;100990.78;5053398;27;97283;-69
2021/09/24 06:43:57;;;;;;;1999.90;999.90;;;;;;;10.52;52.61;100989.06;5055217;27;97706;-69
2021/09/24 06:46:36;;;;;;;1999.90;999.90;;;;;;;10.55;52.71;100989.13;5049150;27;100332;-68
2021/09/24 06:49:04;;;;;;;1999.90;999.90;;;;;;;10.58;52.64;100999.84;5049383;27;97222;-69
2021/09/24 06:51:32;;;;;;;1999.90;999.90;;;;;;;10.62;52.83;101001.72;5036401;27;97421;-68
2021/09/24 06:54:00;;;;;;;1999.90;999.90;;;;;;;10.64;52.88;100997.34;5052346;27;97493;-68
2021/09/24 06:56:27;;;;;;;1999.90;999.90;;;;;;;10.65;52.68;101005.34;5051485;27;100272;-68
2021/09/24 06:58:56;;;;;;;1999.90;999.90;;;;;;;10.70;52.87;101005.47;5053019;27;97260;-70
2021/09/24 07:01:26;;;;;;;1999.90;999.90;;;;;;;10.75;52.90;101006.47;5053055;27;99046;-69
2021/09/24 07:03:54;;;;;;;1999.90;999.90;;;;;;;10.79;52.77;101006.59;5048922;27;98865;-69
2021/09/24 07:06:21;;;;;;;1999.90;999.90;;;;;;;10.82;52.62;101009.31;5059465;27;98838;-66
2021/09/24 07:08:49;;;;;;;1999.90;999.90;;;;;;;10.82;52.76;101009.31;5057829;27;97412;-68
2021/09/24 07:11:17;;;;;;;1999.90;999.90;;;;;;;10.81;52.80;101012.84;5051233;27;97552;-69
2021/09/24 07:13:45;;;;;;;1999.90;999.90;;;;;;;10.82;52.72;101016.41;5054676;27;98995;-71
2021/09/24 07:16:13;;;;;;;1999.90;999.90;;;;;;;10.83;52.86;101012.91;5048246;27;97243;-68
2021/09/24 07:18:42;;;;;;;1999.90;999.90;;;;;;;10.87;52.57;101022.72;5052934;27;97045;-68
2021/09/24 07:21:11;;;;;;;1999.90;999.90;;;;;;;10.89;52.73;101013.03;5052718;27;97464;-70
2021/09/24 07:23:39;;;;;;;1999.90;999.90;;;;;;;10.92;52.69;101013.13;5052413;27;98547;-67
2021/09/24 07:26:11;;;;;;;1999.90;999.90;;;;;;;10.94;52.91;101000.75;5037058;27;97656;-70
2021/09/24 07:28:39;;;;;;;1999.90;999.90;;;;;;;10.98;52.53;101002.56;5047117;27;97511;-69
2021/09/24 07:31:07;;;;;;;1999.90;999.90;;;;;;;11.01;52.58;101006.22;5053089;27;98073;-68
2021/09/24 07:33:35;;;;;;;1999.90;999.90;;;;;;;11.00;52.63;101008.84;5049921;27;99407;-68
2021/09/24 07:36:05;;;;;;;1999.90;999.90;;;;;;;11.05;52.71;101007.19;5057403;27;97154;-71
2021/09/24 07:38:32;;;;;;;1999.90;999.90;;;;;;;11.10;52.58;101016.19;5028081;27;97877;-69
2021/09/24 07:41:00;;;;;;;1999.90;999.90;;;;;;;11.12;52.42;101015.34;5055885;27;97254;-70
2021/09/24 07:43:28;;;;;;;1999.90;999.90;;;;;;;11.15;52.14;101012.78;5048531;27;98022;-69
2021/09/24 07:45:56;;;;;;;1999.90;999.90;;;;;;;11.19;52.41;101021.72;5048689;27;97653;-68
2021/09/24 07:48:24;;;;;;;1999.90;999.90;;;;;;;11.23;51.93;101023.59;5046838;27;97548;-69
2021/09/24 07:50:52;;;;;;;1999.90;999.90;;;;;;;11.29;51.92;101022.84;5054177;27;97512;-69
2021/09/24 07:53:21;;;;;;;1999.90;999.90;;;;;;;11.33;51.88;101028.28;5048835;27;97715;-70
2021/09/24 07:55:49;;;;;;;1999.90;999.90;;;;;;;11.38;51.63;101015.94;5044967;27;99666;-69
2021/09/24 07:58:17;;;;;;;1999.90;999.90;;;;;;;11.43;51.44;101019.63;5051381;27;97217;-69
2021/09/24 08:00:44;;;;;;;1999.90;999.90;;;;;;;11.47;51.28;101020.59;5050492;27;96966;-69
2021/09/24 08:03:12;;;;;;;1999.90;999.90;;;;;;;11.53;51.21;101021.63;5051416;27;98047;-68
2021/09/24 08:05:40;;;;;;;1999.90;999.90;;;;;;;11.56;51.14;101016.34;5047744;27;98559;-70
2021/09/24 08:08:08;;;;;;;1999.90;999.90;;;;;;;11.63;50.72;101023.63;5052965;27;96904;-67
2021/09/24 08:10:37;;;;;;;1999.90;999.90;;;;;;;11.69;50.39;101023.72;5050896;27;97881;-69
2021/09/24 08:13:05;;;;;;;1999.90;999.90;;;;;;;11.73;50.46;101014.94;5037648;27;99258;-68
2021/09/24 08:15:34;;;;;;;1999.90;999.90;;;;;;;11.79;49.89;101020.38;5052024;27;98085;-68
2021/09/24 08:18:02;;;;;;;1999.90;999.90;;;;;;;11.87;49.96;101016.09;5060447;27;97886;-68
2021/09/24 08:20:30;;;;;;;1999.90;999.90;;;;;;;11.94;49.43;101018.00;5057435;27;97031;-68
2021/09/24 08:22:57;;;;;;;1999.90;999.90;;;;;;;12.00;49.03;101020.78;5058140;27;97700;-68
2021/09/24 08:25:25;;;;;;;1999.90;999.90;;;;;;;12.06;48.86;101015.59;5055205;27;98683;-67
2021/09/24 08:27:54;;;;;;;1999.90;999.90;;;;;;;12.12;48.78;101014.81;5049278;27;97880;-69
2021/09/24 08:30:24;;;;;;;1999.90;999.90;;;;;;;12.15;48.46;101018.41;5051588;27;97258;-70
2021/09/24 08:32:52;;;;;;;1999.90;999.90;;;;;;;12.21;48.44;101009.66;5052992;27;99113;-70
2021/09/24 08:35:21;;;;;;;1999.90;999.90;;;;;;;12.25;48.15;101007.94;5052302;27;97763;-68
2021/09/24 08:37:50;;;;;;;1999.90;999.90;;;;;;;12.30;47.81;101015.16;5051437;27;97184;-68
2021/09/24 08:40:18;;;;;;;1999.90;999.90;;;;;;;12.35;47.70;101007.22;5039469;27;97126;-69
2021/09/24 08:42:47;;;;;;;1999.90;999.90;;;;;;;12.39;47.59;101009.09;5055855;27;97413;-68
2021/09/24 08:45:23;;;;;;;1999.90;999.90;;;;;;;12.42;47.46;101009.16;5059045;27;98828;-70
2021/09/24 08:47:52;;;;;;;1999.90;999.90;;;;;;;12.45;47.67;101003.84;5053467;27;97615;-68
2021/09/24 08:50:19;;;;;;;1999.90;999.90;;;;;;;12.51;47.42;101009.31;5056918;27;97689;-70
2021/09/24 08:52:47;;;;;;;1999.90;999.90;;;;;;;12.55;47.33;101006.69;5059661;27;97734;-68
2021/09/24 08:55:15;;;;;;;1999.90;999.90;;;;;;;12.59;47.08;101012.97;5063121;27;97557;-69
2021/09/24 08:57:43;;;;;;;1999.90;999.90;;;;;;;12.62;46.82;101000.59;5061750;27;97264;-68
2021/09/24 09:00:14;;;;;;;1999.90;999.90;;;;;;;12.68;47.01;101003.34;5062814;27;97283;-70
2021/09/24 09:02:54;;;;;;;1999.90;999.90;;;;;;;12.74;47.02;101002.56;5050148;27;100432;-69
2021/09/24 09:05:24;;;;;;;1999.90;999.90;;;;;;;12.78;47.01;100999.06;5057511;27;99503;-69
2021/09/24 09:08:05;;;;;;;1999.90;999.90;;;;;;;12.81;47.02;101012.47;5059414;27;97700;-68
2021/09/24 09:10:38;;;;;;;1999.90;999.90;;;;;;;12.84;46.84;101009.81;5064379;27;97764;-68
2021/09/24 09:13:08;;;;;;;1999.90;999.90;;;;;;;12.85;46.72;101007.22;5057978;27;98298;-68
2021/09/24 09:15:36;;;;;;;1999.90;999.90;;;;;;;12.84;46.63;101015.16;5041940;27;101001;-69
2021/09/24 09:18:05;;;;;;;1999.90;999.90;;;;;;;12.85;46.51;101003.63;5043440;27;97597;-68
2021/09/24 09:20:33;;;;;;;1999.90;999.90;;;;;;;12.88;46.75;101012.59;5058909;27;97790;-69
2021/09/24 09:23:10;;;;;;;1999.90;999.90;;;;;;;12.89;46.82;101010.81;5056494;27;99311;-69
2021/09/24 09:25:40;;;;;;;1999.90;999.90;;;;;;;12.90;46.92;101016.19;5057165;27;96830;-69
2021/09/24 09:28:14;;;;;;;1999.90;999.90;;;;;;;12.90;47.15;101010.84;5059221;27;97152;-69
2021/09/24 09:30:45;;;;;;;1999.90;999.90;;;;;;;12.89;47.19;101018.84;5056539;27;96760;-69
2021/09/24 09:33:17;;;;;;;1999.90;999.90;;;;;;;12.86;47.26;101008.06;5059437;27;100767;-67
2021/09/24 09:35:51;;;;;;;1999.90;999.90;;;;;;;12.86;47.40;101006.31;5060852;27;99145;-68
2021/09/24 09:38:21;;;;;;;1999.90;999.90;;;;;;;12.90;47.49;101009.94;5060901;27;97821;-68
2021/09/24 09:40:51;;;;;;;1999.90;999.90;;;;;;;12.90;47.44;101018.84;5044135;27;97480;-69
2021/09/24 09:43:21;;;;;;;1999.90;999.90;;;;;;;12.89;47.48;101029.50;5061744;27;98094;-68
2021/09/24 09:45:50;;;;;;;1999.90;999.90;;;;;;;12.90;47.45;101010.84;5041823;27;99760;-68
2021/09/24 09:48:19;;;;;;;1999.90;999.90;;;;;;;12.90;47.38;101009.94;5055368;27;97492;-70
2021/09/24 09:50:46;;;;;;;1999.90;999.90;;;;;;;12.92;47.59;101008.19;5062823;27;97760;-68
2021/09/24 09:53:16;;;;;;;1999.90;999.90;;;;;;;12.91;47.49;101001.06;5063433;27;97731;-68
2021/09/24 09:55:49;;;;;;;1999.90;999.90;;;;;;;12.95;47.53;101002.88;5059233;27;97852;-68
2021/09/24 09:58:18;;;;;;;1999.90;999.90;;;;;;;12.98;47.57;101017.16;5057882;27;96916;-69
2021/09/24 10:00:58;;;;;;;1999.90;999.90;;;;;;;13.00;47.55;100995.88;5060757;27;97204;-69
2021/09/24 10:03:33;;;;;;;1999.90;999.90;;;;;;;13.02;47.27;100994.13;5056647;27;99307;-68
2021/09/24 10:06:03;;;;;;;1999.90;999.90;;;;;;;13.03;47.31;101010.19;5062156;27;98672;-68
2021/09/24 10:08:33;;;;;;;1999.90;999.90;;;;;;;13.07;47.47;101014.72;5060447;27;96777;-68
2021/09/24 10:11:07;;;;;;;1999.90;999.90;;;;;;;13.12;47.43;101007.66;5055366;27;97886;-70
2021/09/24 10:13:53;;;;;;;1999.90;999.90;;;;;;;13.14;47.56;101011.25;5053931;27;98938;-68
2021/09/24 10:16:23;;;;;;;1999.90;999.90;;;;;;;13.18;47.44;101004.16;5055629;27;97579;-68
2021/09/24 10:18:53;;;;;;;1999.90;999.90;;;;;;;13.20;47.28;101013.09;5051719;27;96777;-69
2021/09/24 10:21:21;;;;;;;1999.90;999.90;;;;;;;13.23;47.19;101007.78;5054383;27;97257;-68
2021/09/24 10:23:50;;;;;;;1999.90;999.90;;;;;;;13.28;47.13;101003.41;5052275;27;100768;-69
2021/09/24 10:26:24;;;;;;;1999.90;999.90;;;;;;;13.30;46.86;101009.66;5056485;27;97747;-67
2021/09/24 10:28:57;;;;;;;1999.90;999.90;;;;;;;13.32;46.92;101009.69;5031911;27;97066;-69
2021/09/24 10:31:27;;;;;;;1999.90;999.90;;;;;;;13.31;46.99;101011.47;5051423;27;97308;-68
2021/09/24 10:34:02;;;;;;;1999.90;999.90;;;;;;;13.34;46.63;101011.50;5033068;27;98538;-68
2021/09/24 10:36:46;;;;;;;1999.90;999.90;;;;;;;13.35;46.39;100999.06;5039837;27;98727;-69
2021/09/24 10:39:34;;;;;;;1999.90;999.90;;;;;;;13.37;46.56;101000.84;5051604;27;97373;-69
2021/09/24 10:42:24;;;;;;;1999.90;999.90;;;;;;;13.43;46.59;101008.03;5052153;27;96947;-69
2021/09/24 10:45:14;;;;;;;1999.90;999.90;;;;;;;13.45;46.59;101006.28;5055569;27;98066;-69
2021/09/24 10:47:51;;;;;;;1999.90;999.90;;;;;;;13.51;46.56;101004.63;5053107;27;99411;-68
2021/09/24 10:50:50;;;;;;;1999.90;999.90;;;;;;;13.55;46.37;101006.44;5056049;27;97928;-68
2021/09/24 10:53:21;;;;;;;1999.90;999.90;;;;;;;13.58;46.37;100998.47;5033427;27;97107;-69
2021/09/24 10:56:22;;;;;;;1999.90;999.90;;;;;;;13.61;46.20;100990.47;5052175;27;97315;-69